Time;durP1;ratioP1;P1;durP2;ratioP2;P2;SDS_P1;SDS_P2;PMS_P1;PMS_P2;Temp;Humidity;BMP_temperature;BMP_pressure;BME280_temperature;BME280_humidity;BME280_pressure;Samples;Min_cycle;Max_cycle;Signal;HPM_P1;HPM_P2
2021/12/10 00:01:12;;;;;;;33.00;13.70;;;4.90;99.90;;;;;;5071134;28;20436;-72
2021/12/10 00:03:43;;;;;;;20.15;9.80;;;4.90;99.90;;;;;;5078607;28;20396;-72
2021/12/10 00:06:20;;;;;;;29.42;12.88;;;4.80;99.90;;;;;;5093434;28;20024;-73
2021/12/10 00:08:54;;;;;;;40.80;14.70;;;4.80;99.90;;;;;;5095005;28;20024;-74
2021/12/10 00:11:31;;;;;;;30.85;13.57;;;4.80;99.90;;;;;;5094526;28;20035;-73
2021/12/10 00:13:58;;;;;;;33.03;13.25;;;4.80;99.90;;;;;;5107087;28;20047;-74
2021/12/10 00:16:24;;;;;;;26.27;12.05;;;4.80;99.90;;;;;;5076502;28;20028;-72
2021/12/10 00:18:56;;;;;;;32.50;13.45;;;4.80;99.90;;;;;;5094258;28;20383;-72
2021/12/10 00:21:25;;;;;;;36.97;13.35;;;4.90;99.90;;;;;;5094696;28;20036;-73
2021/12/10 00:23:51;;;;;;;39.10;14.13;;;4.90;99.90;;;;;;5093055;28;20028;-72
2021/12/10 00:26:23;;;;;;;100.20;20.10;;;4.80;99.90;;;;;;5093445;28;20024;-74
2021/12/10 00:28:51;;;;;;;25.80;11.07;;;4.90;99.90;;;;;;5094590;28;20035;-75
2021/12/10 00:34:11;;;;;;;20.85;9.02;;;4.90;99.90;;;;;;5094630;28;20422;-74
2021/12/10 00:36:37;;;;;;;33.97;12.55;;;4.90;99.90;;;;;;5092673;28;20439;-73
2021/12/10 00:39:14;;;;;;;31.42;12.38;;;4.80;99.90;;;;;;5092881;28;20028;-72
2021/12/10 00:41:41;;;;;;;29.38;11.88;;;4.80;99.90;;;;;;5094041;28;20479;-74
2021/12/10 00:44:06;;;;;;;25.08;11.02;;;4.70;99.90;;;;;;5093822;28;20384;-75
2021/12/10 00:46:33;;;;;;;29.95;12.27;;;4.70;99.90;;;;;;5094290;28;20077;-71
2021/12/10 00:49:00;;;;;;;32.78;10.85;;;4.60;99.90;;;;;;5091341;28;20490;-71
2021/12/10 00:51:25;;;;;;;20.85;9.93;;;4.70;99.90;;;;;;5089290;28;20039;-72
2021/12/10 00:53:52;;;;;;;30.92;12.02;;;4.70;99.90;;;;;;5093475;28;20103;-74
2021/12/10 00:56:19;;;;;;;25.88;12.02;;;4.70;99.90;;;;;;5075206;28;20433;-73
2021/12/10 00:58:44;;;;;;;25.35;11.80;;;4.70;99.90;;;;;;5093957;28;20036;-73
2021/12/10 01:01:18;;;;;;;25.48;11.55;;;4.70;99.90;;;;;;5093359;28;20101;-72
2021/12/10 01:03:48;;;;;;;28.45;11.32;;;4.70;99.90;;;;;;5092654;28;20488;-72
2021/12/10 01:06:16;;;;;;;29.92;11.05;;;4.70;99.90;;;;;;5092371;28;20035;-73
2021/12/10 01:08:45;;;;;;;26.98;10.52;;;4.70;99.90;;;;;;5093020;28;20024;-73
2021/12/10 01:11:16;;;;;;;24.40;10.85;;;4.70;99.90;;;;;;5092483;28;20028;-74
2021/12/10 01:13:45;;;;;;;;;;;4.70;99.90;;;;;;5093635;28;20028;-74
2021/12/10 01:24:37;;;;;;;25.23;10.85;;;4.70;99.90;;;;;;5093402;28;20082;-72
2021/12/10 01:27:24;;;;;;;22.05;10.40;;;4.60;99.90;;;;;;5092438;28;20028;-74
2021/12/10 01:29:56;;;;;;;34.00;13.68;;;4.60;99.90;;;;;;5093336;28;20068;-74
2021/12/10 01:32:23;;;;;;;29.10;13.27;;;4.60;99.90;;;;;;5090811;28;20035;-73
2021/12/10 01:34:50;;;;;;;29.98;14.75;;;4.60;99.90;;;;;;5092909;28;20056;-72
2021/12/10 01:37:16;;;;;;;30.02;12.98;;;4.60;99.90;;;;;;5092579;28;20040;-72
2021/12/10 01:39:43;;;;;;;31.30;14.18;;;4.60;99.90;;;;;;5093040;28;20024;-72
2021/12/10 01:42:17;;;;;;;28.40;12.48;;;4.70;99.90;;;;;;5093294;28;20531;-74
2021/12/10 01:44:46;;;;;;;33.95;14.73;;;4.70;99.90;;;;;;5092938;28;20443;-75
2021/12/10 01:47:16;;;;;;;31.95;15.35;;;4.70;99.90;;;;;;5092993;28;20027;-75
2021/12/10 01:49:43;;;;;;;35.67;15.27;;;4.70;99.90;;;;;;5093041;28;20115;-73
2021/12/10 01:52:09;;;;;;;34.55;15.00;;;4.70;99.90;;;;;;5093010;28;20103;-72
2021/12/10 01:54:42;;;;;;;29.88;13.15;;;4.70;99.90;;;;;;5092874;28;20028;-72
2021/12/10 01:57:10;;;;;;;29.92;14.52;;;4.70;99.90;;;;;;5093104;28;20052;-73
2021/12/10 01:59:37;;;;;;;35.05;15.93;;;4.70;99.90;;;;;;5092665;28;20105;-72
2021/12/10 02:02:09;;;;;;;31.80;14.25;;;4.70;99.90;;;;;;5092606;28;20039;-73
2021/12/10 02:04:36;;;;;;;38.17;13.77;;;4.70;99.90;;;;;;5091100;28;20048;-74
2021/12/10 02:07:05;;;;;;;32.30;13.45;;;4.70;99.90;;;;;;5092948;28;20032;-73
2021/12/10 02:09:31;;;;;;;27.65;13.65;;;4.60;99.90;;;;;;5092663;28;20024;-70
2021/12/10 02:11:57;;;;;;;30.70;13.48;;;4.60;99.90;;;;;;5092272;28;20016;-74
2021/12/10 02:14:23;;;;;;;22.20;9.45;;;4.60;99.90;;;;;;5092743;28;20499;-73
2021/12/10 02:16:51;;;;;;;29.13;12.50;;;4.60;99.90;;;;;;5093008;28;20034;-74
2021/12/10 02:19:18;;;;;;;26.70;13.10;;;4.60;99.90;;;;;;5092565;28;20051;-75
2021/12/10 02:21:45;;;;;;;32.90;13.52;;;4.60;99.90;;;;;;5092555;28;20040;-75
2021/12/10 02:24:12;;;;;;;29.83;13.27;;;4.60;99.90;;;;;;5092852;28;20024;-72
2021/12/10 02:27:00;;;;;;;26.42;12.93;;;4.60;99.90;;;;;;5092921;28;20032;-73
2021/12/10 02:29:29;;;;;;;28.45;12.25;;;4.60;99.90;;;;;;5092771;28;20028;-74
2021/12/10 02:31:55;;;;;;;22.77;9.40;;;4.60;99.90;;;;;;5092429;28;20077;-71
2021/12/10 02:34:22;;;;;;;24.48;10.30;;;4.50;99.90;;;;;;5090626;28;20024;-73
2021/12/10 02:36:48;;;;;;;27.70;10.40;;;4.50;99.90;;;;;;5092882;28;20126;-72
2021/12/10 02:39:16;;;;;;;22.88;10.68;;;4.50;99.90;;;;;;5092757;28;20090;-73
2021/12/10 02:41:42;;;;;;;28.67;12.77;;;4.50;99.90;;;;;;5092562;28;20054;-73
2021/12/10 02:44:12;;;;;;;26.85;11.05;;;4.50;99.90;;;;;;5092796;28;20128;-72
2021/12/10 02:46:38;;;;;;;25.17;11.20;;;4.40;99.90;;;;;;5092794;28;20444;-72
2021/12/10 02:49:06;;;;;;;26.55;12.10;;;4.40;99.90;;;;;;5093149;28;20023;-74
2021/12/10 02:51:33;;;;;;;27.88;12.00;;;4.40;99.90;;;;;;5095486;28;20024;-73
2021/12/10 02:53:59;;;;;;;27.05;11.68;;;4.40;99.90;;;;;;5095098;28;20024;-75
2021/12/10 02:56:25;;;;;;;28.75;11.75;;;4.30;99.90;;;;;;5093679;28;20032;-71
2021/12/10 02:58:54;;;;;;;23.05;10.05;;;4.30;99.90;;;;;;5096062;28;20085;-74
2021/12/10 03:01:29;;;;;;;28.85;11.38;;;4.30;99.90;;;;;;5095820;28;20036;-74
2021/12/10 03:03:55;;;;;;;27.02;11.98;;;4.30;99.90;;;;;;5095995;28;20047;-72
2021/12/10 03:06:22;;;;;;;28.02;10.93;;;4.30;99.90;;;;;;5096324;28;20044;-75
2021/12/10 03:08:51;;;;;;;26.60;11.02;;;4.30;99.90;;;;;;5095903;28;20032;-71
2021/12/10 03:11:21;;;;;;;22.45;9.75;;;4.30;99.90;;;;;;5095960;28;20028;-75
2021/12/10 03:13:47;;;;;;;28.95;10.85;;;4.30;99.90;;;;;;5095853;28;20035;-73
2021/12/10 03:16:13;;;;;;;21.25;9.20;;;4.40;99.90;;;;;;5095610;28;20040;-71
2021/12/10 03:18:39;;;;;;;23.45;9.25;;;4.40;99.90;;;;;;5095884;28;20032;-72
2021/12/10 03:21:09;;;;;;;24.35;8.95;;;4.40;99.90;;;;;;5095464;28;20042;-72
2021/12/10 03:23:42;;;;;;;22.08;8.65;;;4.30;99.90;;;;;;5077305;28;20526;-73
2021/12/10 03:26:10;;;;;;;16.33;6.82;;;4.30;99.90;;;;;;5096028;28;20031;-72
2021/12/10 03:28:38;;;;;;;17.90;7.88;;;4.30;99.90;;;;;;5095532;28;20421;-74
2021/12/10 03:31:05;;;;;;;20.10;8.13;;;4.30;99.90;;;;;;5093336;28;20032;-74
2021/12/10 03:33:31;;;;;;;16.65;6.85;;;4.30;99.90;;;;;;5095621;28;20031;-71
2021/12/10 03:35:56;;;;;;;23.20;7.50;;;4.40;99.90;;;;;;5095037;28;20016;-74
2021/12/10 03:38:25;;;;;;;28.55;8.25;;;4.40;99.90;;;;;;5095426;28;20421;-71
2021/12/10 03:40:52;;;;;;;16.23;6.25;;;4.40;99.90;;;;;;5095190;28;20040;-74
2021/12/10 03:43:19;;;;;;;17.20;6.22;;;4.40;99.90;;;;;;5094800;28;20429;-74
2021/12/10 03:45:48;;;;;;;12.57;6.13;;;4.50;99.90;;;;;;5095239;28;20024;-73
2021/12/10 03:48:26;;;;;;;17.65;6.47;;;4.50;99.90;;;;;;5095774;28;20020;-74
2021/12/10 03:50:53;;;;;;;17.05;7.10;;;4.50;99.90;;;;;;5095373;28;20099;-72
2021/12/10 03:53:19;;;;;;;18.33;7.43;;;4.50;99.90;;;;;;5095395;28;20028;-74
2021/12/10 03:55:47;;;;;;;15.77;5.70;;;4.60;99.90;;;;;;5095501;28;20521;-73
2021/12/10 03:58:14;;;;;;;12.88;5.60;;;4.60;99.90;;;;;;5095309;28;20024;-73
2021/12/10 04:00:48;;;;;;;14.88;4.93;;;4.70;99.90;;;;;;5095050;28;20421;-72
2021/12/10 04:03:16;;;;;;;15.38;5.70;;;4.70;99.90;;;;;;5095012;28;20032;-72
2021/12/10 04:05:43;;;;;;;13.02;4.72;;;4.80;99.90;;;;;;5095366;28;20146;-74
2021/12/10 04:08:09;;;;;;;11.48;4.90;;;4.80;99.90;;;;;;5094361;28;20081;-74
2021/12/10 04:10:36;;;;;;;15.57;5.53;;;4.90;99.90;;;;;;5095128;28;20024;-74
2021/12/10 04:13:02;;;;;;;12.75;4.97;;;4.90;99.90;;;;;;5095340;28;20051;-72
2021/12/10 04:15:28;;;;;;;12.60;5.15;;;4.90;99.90;;;;;;5076648;28;20033;-73
2021/12/10 04:17:55;;;;;;;13.73;4.43;;;4.90;99.90;;;;;;5098355;28;20027;-74
2021/12/10 04:20:24;;;;;;;18.48;6.07;;;4.80;99.90;;;;;;5094946;28;20036;-71
2021/12/10 04:22:51;;;;;;;15.50;5.38;;;4.80;99.90;;;;;;5094195;28;20020;-75
2021/12/10 04:25:20;;;;;;;13.25;4.57;;;4.70;99.90;;;;;;5094576;28;20040;-74
2021/12/10 04:27:48;;;;;;;15.98;5.40;;;4.70;99.90;;;;;;5076345;28;20059;-72
2021/12/10 04:30:16;;;;;;;18.48;6.40;;;4.60;99.90;;;;;;5094042;28;20103;-72
2021/12/10 04:32:43;;;;;;;14.40;5.35;;;4.60;99.90;;;;;;5075899;28;20542;-73
2021/12/10 04:35:10;;;;;;;15.82;5.50;;;4.60;99.90;;;;;;5093889;28;20028;-74
2021/12/10 04:37:36;;;;;;;18.77;5.68;;;4.50;99.90;;;;;;5093543;28;20031;-75
2021/12/10 04:40:05;;;;;;;20.80;6.47;;;4.50;99.90;;;;;;5094024;28;20036;-72
2021/12/10 04:42:31;;;;;;;17.63;5.78;;;4.50;99.90;;;;;;5093431;28;20024;-73
2021/12/10 04:44:59;;;;;;;14.57;5.28;;;4.50;99.90;;;;;;5093697;28;20525;-73
2021/12/10 04:47:25;;;;;;;12.95;5.15;;;4.50;99.90;;;;;;5093782;28;20472;-76
2021/12/10 04:49:52;;;;;;;15.23;4.90;;;4.50;99.90;;;;;;5092911;28;20034;-73
2021/12/10 04:52:18;;;;;;;11.65;4.20;;;4.50;99.90;;;;;;5094586;28;20028;-74
2021/12/10 04:54:44;;;;;;;15.32;5.10;;;4.50;99.90;;;;;;5094016;28;20036;-75
2021/12/10 04:57:10;;;;;;;17.30;5.35;;;4.50;99.90;;;;;;5093794;28;20036;-73
2021/12/10 04:59:37;;;;;;;18.65;5.50;;;4.50;99.90;;;;;;5092459;28;20028;-72
2021/12/10 05:02:07;;;;;;;16.77;5.28;;;4.60;99.90;;;;;;5092641;28;20040;-74
2021/12/10 05:04:33;;;;;;;14.60;4.45;;;4.60;99.90;;;;;;5093209;28;20055;-74
2021/12/10 05:07:00;;;;;;;14.15;4.68;;;4.60;99.90;;;;;;5093486;28;20431;-73
2021/12/10 05:09:28;;;;;;;10.00;4.45;;;4.60;99.90;;;;;;5092951;28;20023;-72
2021/12/10 05:11:56;;;;;;;13.82;4.80;;;4.60;99.90;;;;;;5092967;28;20054;-74
2021/12/10 05:14:23;;;;;;;15.07;4.80;;;4.60;99.90;;;;;;5093870;28;20020;-72
2021/12/10 05:16:54;;;;;;;11.35;4.75;;;4.60;99.90;;;;;;5091380;28;20024;-73
2021/12/10 05:19:23;;;;;;;10.15;4.22;;;4.60;99.90;;;;;;5074864;28;20028;-75
2021/12/10 05:21:50;;;;;;;14.40;4.65;;;4.60;99.90;;;;;;5093280;28;20028;-75
2021/12/10 05:24:16;;;;;;;12.15;3.28;;;4.60;99.90;;;;;;5092020;28;20372;-73
2021/12/10 05:26:44;;;;;;;16.70;4.65;;;4.60;99.90;;;;;;5091597;28;20028;-74
2021/12/10 05:29:10;;;;;;;12.95;4.38;;;4.60;99.90;;;;;;5092526;28;20040;-74
2021/12/10 05:31:39;;;;;;;15.68;4.22;;;4.60;99.90;;;;;;5091673;28;20526;-72
2021/12/10 05:34:06;;;;;;;16.70;4.13;;;4.70;99.90;;;;;;5092937;28;20042;-73
2021/12/10 05:36:31;;;;;;;15.25;4.40;;;4.70;99.90;;;;;;5092576;28;20024;-74
2021/12/10 05:38:57;;;;;;;9.10;3.58;;;4.70;99.90;;;;;;5093170;28;20028;-73
2021/12/10 05:41:23;;;;;;;11.60;3.70;;;4.70;99.90;;;;;;5093465;28;20043;-74
2021/12/10 05:43:49;;;;;;;11.45;3.95;;;4.70;99.90;;;;;;5092803;28;20028;-72
2021/12/10 05:46:17;;;;;;;10.48;3.53;;;4.70;99.90;;;;;;5092964;28;20032;-72
2021/12/10 05:48:42;;;;;;;9.38;3.28;;;4.70;99.90;;;;;;5093199;28;20043;-74
2021/12/10 05:51:09;;;;;;;10.60;3.03;;;4.70;99.90;;;;;;5092054;28;20452;-75
2021/12/10 05:53:34;;;;;;;12.40;3.65;;;4.70;99.90;;;;;;5092933;28;20032;-75
2021/12/10 05:56:00;;;;;;;13.32;3.90;;;4.80;99.90;;;;;;5093395;28;20043;-73
2021/12/10 05:58:26;;;;;;;11.57;3.22;;;4.80;99.90;;;;;;5092252;28;20391;-74
2021/12/10 06:01:03;;;;;;;8.32;3.35;;;4.80;99.90;;;;;;5092291;28;20039;-73
2021/12/10 06:03:30;;;;;;;13.77;3.80;;;4.80;99.90;;;;;;5092138;28;20115;-73
2021/12/10 06:05:56;;;;;;;14.85;3.47;;;4.80;99.90;;;;;;5092852;28;20040;-73
2021/12/10 06:08:23;;;;;;;7.38;3.25;;;4.80;99.90;;;;;;5091444;28;20024;-73
2021/12/10 06:10:51;;;;;;;11.00;3.42;;;4.80;99.90;;;;;;5092463;28;20028;-73
2021/12/10 06:13:17;;;;;;;8.32;3.70;;;4.80;99.90;;;;;;5074805;28;20056;-75
2021/12/10 06:15:43;;;;;;;9.57;3.13;;;4.80;99.90;;;;;;5092788;28;20131;-73
2021/12/10 06:18:10;;;;;;;13.25;3.65;;;4.80;99.90;;;;;;5093381;28;20059;-74
2021/12/10 06:20:39;;;;;;;14.85;4.15;;;4.80;99.90;;;;;;5092188;28;20032;-71
2021/12/10 06:23:06;;;;;;;13.73;3.38;;;4.90;99.90;;;;;;5092707;28;20032;-72
2021/12/10 06:25:32;;;;;;;16.42;4.10;;;4.90;99.90;;;;;;5095502;28;20051;-72
2021/12/10 06:27:58;;;;;;;11.02;3.55;;;4.80;99.90;;;;;;5096634;28;20024;-71
2021/12/10 06:30:30;;;;;;;10.00;4.18;;;4.80;99.90;;;;;;5096740;28;20038;-73
2021/12/10 06:32:58;;;;;;;14.48;3.70;;;4.80;99.90;;;;;;5096431;28;20035;-74
2021/12/10 06:35:25;;;;;;;14.32;3.70;;;4.80;99.90;;;;;;5095372;28;20028;-75
2021/12/10 06:37:53;;;;;;;14.02;3.47;;;4.80;99.90;;;;;;5095775;28;20032;-72
2021/12/10 06:40:22;;;;;;;14.70;4.13;;;4.70;99.90;;;;;;5096215;28;20036;-73
2021/12/10 06:42:49;;;;;;;11.85;3.35;;;4.70;99.90;;;;;;5095684;28;20071;-73
2021/12/10 06:45:18;;;;;;;8.75;3.47;;;4.70;99.90;;;;;;5096200;28;20027;-74
2021/12/10 06:47:47;;;;;;;11.30;3.92;;;4.70;99.90;;;;;;5096596;28;20086;-72
2021/12/10 06:50:16;;;;;;;9.52;4.03;;;4.70;99.90;;;;;;5095885;28;20040;-73
2021/12/10 06:52:42;;;;;;;13.00;3.58;;;4.70;99.90;;;;;;5095633;28;20036;-73
2021/12/10 06:55:08;;;;;;;11.13;3.67;;;4.70;99.90;;;;;;5095815;28;20020;-74
2021/12/10 06:57:37;;;;;;;8.75;2.95;;;4.70;99.90;;;;;;5096549;28;20032;-74
2021/12/10 07:00:06;;;;;;;15.32;4.20;;;4.70;99.90;;;;;;5095842;28;20524;-73
2021/12/10 07:02:32;;;;;;;12.02;3.70;;;4.70;99.90;;;;;;5095832;28;20039;-75
2021/12/10 07:04:57;;;;;;;9.25;3.60;;;4.70;99.90;;;;;;5096194;28;20364;-73
2021/12/10 07:07:23;;;;;;;10.50;3.30;;;4.70;99.90;;;;;;5077448;28;20028;-73
2021/12/10 07:09:49;;;;;;;6.97;2.92;;;4.70;99.90;;;;;;5095519;28;20032;-72
2021/12/10 07:12:15;;;;;;;13.18;3.90;;;4.70;99.90;;;;;;5095942;28;20136;-74
2021/12/10 07:14:40;;;;;;;12.10;3.70;;;4.70;99.90;;;;;;5077714;28;20031;-73
2021/12/10 07:17:07;;;;;;;10.65;3.65;;;4.70;99.90;;;;;;5096676;28;20039;-76
2021/12/10 07:19:33;;;;;;;13.13;3.88;;;4.70;99.90;;;;;;5101801;28;20023;-75
2021/12/10 07:21:58;;;;;;;9.88;3.42;;;4.70;99.90;;;;;;5095226;28;20040;-74
2021/12/10 07:24:24;;;;;;;12.63;3.35;;;4.70;99.90;;;;;;5095581;28;20028;-75
2021/12/10 07:26:50;;;;;;;10.55;3.33;;;4.80;99.90;;;;;;5096009;28;20085;-74
2021/12/10 07:29:16;;;;;;;13.00;3.25;;;4.80;99.90;;;;;;5076886;28;20031;-72
2021/12/10 07:31:44;;;;;;;11.95;3.33;;;4.80;99.90;;;;;;5094586;28;20069;-72
2021/12/10 07:34:10;;;;;;;13.75;3.30;;;4.90;99.90;;;;;;5095371;28;20409;-74
2021/12/10 07:36:38;;;;;;;12.82;3.15;;;4.90;99.90;;;;;;5095281;28;20039;-73
2021/12/10 07:39:05;;;;;;;8.35;2.80;;;4.90;99.90;;;;;;5095107;28;20028;-72
2021/12/10 07:41:31;;;;;;;9.52;2.97;;;4.90;99.90;;;;;;5094493;28;20036;-73
2021/12/10 07:43:57;;;;;;;10.55;3.17;;;4.90;99.90;;;;;;5095171;28;20032;-71
2021/12/10 07:46:28;;;;;;;9.38;3.00;;;5.00;99.90;;;;;;5095134;28;20039;-72
2021/12/10 07:48:55;;;;;;;9.40;2.80;;;5.00;99.90;;;;;;5095299;28;20031;-74
2021/12/10 07:51:26;;;;;;;7.60;3.00;;;5.00;99.90;;;;;;5094830;28;20077;-72
2021/12/10 07:53:54;;;;;;;11.30;3.53;;;5.00;99.90;;;;;;5093830;28;20092;-72
2021/12/10 07:56:21;;;;;;;7.95;3.15;;;5.00;99.90;;;;;;5094171;28;20527;-74
2021/12/10 07:58:47;;;;;;;11.20;2.90;;;5.10;99.90;;;;;;5094964;28;20034;-75
2021/12/10 08:01:20;;;;;;;12.05;2.90;;;5.10;99.90;;;;;;5093998;28;20114;-72
2021/12/10 08:03:46;;;;;;;9.50;3.03;;;5.10;99.90;;;;;;5094984;28;20036;-74
2021/12/10 08:06:13;;;;;;;10.27;2.80;;;5.10;99.90;;;;;;5093854;28;20036;-74
2021/12/10 08:08:39;;;;;;;10.65;2.97;;;5.20;99.90;;;;;;5094478;28;20028;-73
2021/12/10 08:11:18;;;;;;;8.32;2.90;;;5.20;99.90;;;;;;5092308;28;20024;-76
2021/12/10 08:13:44;;;;;;;9.52;2.92;;;5.20;99.90;;;;;;5091547;28;20059;-72
2021/12/10 08:16:13;;;;;;;9.48;3.22;;;5.30;99.90;;;;;;5075754;28;20059;-76
2021/12/10 08:18:54;;;;;;;12.45;3.10;;;5.30;99.90;;;;;;5093085;28;20021;-72
2021/12/10 08:21:29;;;;;;;9.90;3.35;;;5.30;99.90;;;;;;5094398;28;20070;-74
2021/12/10 08:23:55;;;;;;;10.45;3.13;;;5.30;99.90;;;;;;5093463;28;20028;-71
2021/12/10 08:26:21;;;;;;;10.73;2.90;;;5.30;99.90;;;;;;5093121;28;20032;-73
2021/12/10 08:28:47;;;;;;;10.85;3.10;;;5.30;99.90;;;;;;5094642;28;20025;-72
2021/12/10 08:31:15;;;;;;;6.00;2.53;;;5.30;99.90;;;;;;5094682;28;20081;-74
2021/12/10 08:33:44;;;;;;;13.50;2.80;;;5.30;99.90;;;;;;5094723;28;20448;-74
2021/12/10 08:36:11;;;;;;;9.27;3.13;;;5.30;99.90;;;;;;5094814;28;20059;-75
2021/12/10 08:38:38;;;;;;;13.43;4.07;;;5.20;99.90;;;;;;5094802;28;20027;-72
2021/12/10 08:41:08;;;;;;;10.20;3.40;;;5.20;99.90;;;;;;5094600;28;20035;-72
2021/12/10 08:43:34;;;;;;;10.48;3.25;;;5.20;99.90;;;;;;5094863;28;20111;-75
2021/12/10 08:46:01;;;;;;;9.25;2.97;;;5.20;99.90;;;;;;5094916;28;20464;-75
2021/12/10 08:48:29;;;;;;;11.65;3.10;;;5.20;99.90;;;;;;5093723;28;20103;-75
2021/12/10 08:50:57;;;;;;;12.25;3.72;;;5.10;99.90;;;;;;5094250;28;20056;-75
2021/12/10 08:53:23;;;;;;;8.68;2.97;;;5.10;99.90;;;;;;5094155;28;20024;-74
2021/12/10 08:55:51;;;;;;;16.83;4.15;;;5.20;99.90;;;;;;5093027;28;20036;-75
2021/12/10 08:58:17;;;;;;;8.95;2.90;;;5.20;99.90;;;;;;5094090;28;20035;-74
2021/12/10 09:00:53;;;;;;;7.47;3.13;;;5.20;99.90;;;;;;5094007;28;20471;-72
2021/12/10 09:03:18;;;;;;;9.05;3.10;;;5.20;99.90;;;;;;5075910;28;20028;-73
2021/12/10 09:05:44;;;;;;;11.10;3.58;;;5.20;99.90;;;;;;5094068;28;20468;-73
2021/12/10 09:08:11;;;;;;;11.13;2.80;;;5.20;99.90;;;;;;5094148;28;20036;-74
2021/12/10 09:10:41;;;;;;;12.32;3.53;;;5.20;99.90;;;;;;5076162;28;20047;-74
2021/12/10 09:13:13;;;;;;;6.97;2.50;;;5.20;99.90;;;;;;5092955;28;20024;-72
2021/12/10 09:15:42;;;;;;;15.45;3.40;;;5.20;99.90;;;;;;5093816;28;20046;-74
2021/12/10 09:18:09;;;;;;;15.98;3.63;;;5.20;99.90;;;;;;5092727;28;20052;-75
2021/12/10 09:20:39;;;;;;;12.40;2.95;;;5.20;99.90;;;;;;5093674;28;20484;-73
2021/12/10 09:23:12;;;;;;;8.63;3.13;;;5.20;99.90;;;;;;5109516;28;20028;-73
2021/12/10 09:25:39;;;;;;;14.48;4.00;;;5.20;99.90;;;;;;5077348;28;20054;-72
2021/12/10 09:28:05;;;;;;;8.32;2.78;;;5.30;99.90;;;;;;5075550;28;20028;-72
2021/12/10 09:30:34;;;;;;;12.73;3.30;;;5.30;99.90;;;;;;5093356;28;20419;-75
2021/12/10 09:33:00;;;;;;;11.07;3.45;;;5.30;99.90;;;;;;5092930;28;20383;-75
2021/12/10 09:35:29;;;;;;;11.60;3.22;;;5.30;99.90;;;;;;5093449;28;20031;-75
2021/12/10 09:37:55;;;;;;;13.30;3.47;;;5.40;99.90;;;;;;5093820;28;20028;-74
2021/12/10 09:40:25;;;;;;;12.52;4.60;;;5.40;99.90;;;;;;5093750;28;20031;-73
2021/12/10 09:42:51;;;;;;;13.40;4.25;;;5.30;99.90;;;;;;5093575;28;20028;-72
2021/12/10 09:45:19;;;;;;;18.98;5.53;;;5.30;99.90;;;;;;5093313;28;20032;-75
2021/12/10 09:47:46;;;;;;;13.45;4.50;;;5.40;99.90;;;;;;5092046;28;20028;-75
2021/12/10 09:50:14;;;;;;;7.95;4.40;;;5.30;99.90;;;;;;5093109;28;20051;-73
2021/12/10 09:52:41;;;;;;;15.35;3.97;;;5.30;99.90;;;;;;5093369;28;20103;-75
2021/12/10 09:55:11;;;;;;;12.05;4.47;;;5.40;99.90;;;;;;5093421;28;20062;-76
2021/12/10 09:57:39;;;;;;;18.77;5.38;;;5.40;99.90;;;;;;5093469;28;20082;-75
2021/12/10 10:00:11;;;;;;;13.07;4.63;;;5.40;99.90;;;;;;5092598;28;20353;-74
2021/12/10 10:02:39;;;;;;;10.50;5.40;;;5.30;99.90;;;;;;5091876;28;20020;-75
2021/12/10 10:05:05;;;;;;;15.70;5.68;;;5.30;99.90;;;;;;5092772;28;20048;-72
2021/12/10 10:07:32;;;;;;;25.33;6.05;;;5.30;99.90;;;;;;5092922;28;20035;-75
2021/12/10 10:10:05;;;;;;;15.13;5.53;;;5.40;99.90;;;;;;5093365;28;20099;-71
2021/12/10 10:12:34;;;;;;;13.15;4.75;;;5.30;99.90;;;;;;5103566;28;20032;-73
2021/12/10 10:15:03;;;;;;;14.57;5.20;;;5.30;99.90;;;;;;5093475;28;20028;-76
2021/12/10 10:17:29;;;;;;;35.42;7.70;;;5.30;99.90;;;;;;5094340;28;20020;-73
2021/12/10 10:19:55;;;;;;;17.38;5.72;;;5.30;99.90;;;;;;5086008;28;20026;-76
2021/12/10 10:22:26;;;;;;;10.60;5.07;;;5.30;99.90;;;;;;5091524;28;20032;-75
2021/12/10 10:24:53;;;;;;;16.55;6.13;;;5.30;99.90;;;;;;5092854;28;20423;-71
2021/12/10 10:27:28;;;;;;;19.33;7.03;;;5.30;99.90;;;;;;5092352;28;20134;-73
2021/12/10 10:30:05;;;;;;;15.63;5.65;;;5.30;99.90;;;;;;5093216;28;20067;-73
2021/12/10 10:32:34;;;;;;;13.85;5.97;;;5.30;99.90;;;;;;5093158;28;20027;-72
2021/12/10 10:35:05;;;;;;;16.20;6.05;;;5.30;99.90;;;;;;5093351;28;20052;-75
2021/12/10 10:37:32;;;;;;;31.85;7.88;;;5.30;99.90;;;;;;5091685;28;20107;-74
2021/12/10 10:39:58;;;;;;;20.23;7.40;;;5.30;99.90;;;;;;5091897;28;20024;-75
2021/12/10 10:42:31;;;;;;;20.60;7.75;;;5.40;99.90;;;;;;5092839;28;20040;-76
2021/12/10 10:45:05;;;;;;;18.08;7.30;;;5.40;99.90;;;;;;5108426;28;20468;-76
2021/12/10 10:47:31;;;;;;;23.70;8.13;;;5.50;99.90;;;;;;5092917;28;20364;-73
2021/12/10 10:50:14;;;;;;;17.90;6.18;;;5.60;99.90;;;;;;5092965;28;20035;-71
2021/12/10 10:52:45;;;;;;;16.75;6.93;;;5.60;99.90;;;;;;5093245;28;20031;-74
2021/12/10 10:55:10;;;;;;;14.25;6.05;;;5.60;99.90;;;;;;5092724;28;20020;-74
2021/12/10 10:57:39;;;;;;;23.60;8.15;;;5.60;99.90;;;;;;5092739;28;20035;-73
2021/12/10 11:00:29;;;;;;;18.35;6.78;;;5.60;99.90;;;;;;5092711;28;20024;-74
2021/12/10 11:03:01;;;;;;;16.30;6.45;;;5.60;99.90;;;;;;5073367;28;20033;-74
2021/12/10 11:05:27;;;;;;;;;;;5.60;99.90;;;;;;5073480;28;20498;-71
2021/12/10 11:07:57;;;;;;;20.20;6.53;;;5.60;99.90;;;;;;5072582;28;19904;-74
2021/12/10 11:10:27;;;;;;;23.48;8.23;;;5.50;99.90;;;;;;5073682;28;20071;-73
2021/12/10 11:12:53;;;;;;;19.35;7.93;;;5.60;99.90;;;;;;5074586;28;20021;-74
2021/12/10 11:15:19;;;;;;;25.63;10.43;;;5.60;99.90;;;;;;5075688;28;20024;-73
2021/12/10 11:17:51;;;;;;;41.33;8.63;;;5.70;99.90;;;;;;5087052;28;20037;-74
2021/12/10 11:20:21;;;;;;;22.00;6.95;;;5.80;99.90;;;;;;5096269;28;20099;-74
2021/12/10 11:22:53;;;;;;;18.23;7.03;;;5.80;99.90;;;;;;5096042;28;20052;-74
2021/12/10 11:25:23;;;;;;;23.08;7.90;;;5.90;99.90;;;;;;5095771;28;20096;-71
2021/12/10 11:27:50;;;;;;;22.20;7.65;;;5.90;99.90;;;;;;5095727;28;20490;-73
2021/12/10 11:30:22;;;;;;;16.90;7.80;;;6.00;99.90;;;;;;5111818;28;20035;-72
2021/12/10 11:32:53;;;;;;;19.05;7.20;;;6.10;99.90;;;;;;5096171;28;20059;-72
2021/12/10 11:35:41;;;;;;;23.25;7.60;;;6.20;99.90;;;;;;5096179;28;20024;-72
2021/12/10 11:38:14;;;;;;;17.08;7.45;;;6.30;99.90;;;;;;5095694;28;20050;-75
2021/12/10 11:40:49;;;;;;;15.40;7.28;;;6.30;99.90;;;;;;5095683;28;20040;-73
2021/12/10 11:46:04;;;;;;;13.77;6.22;;;6.40;99.90;;;;;;5095413;28;20028;-73
2021/12/10 11:48:34;;;;;;;17.92;6.45;;;6.40;99.90;;;;;;5095690;28;20063;-74
2021/12/10 11:51:10;;;;;;;16.60;6.97;;;6.50;99.90;;;;;;5111455;28;20393;-75
2021/12/10 11:53:59;;;;;;;13.90;6.32;;;6.50;99.90;;;;;;5096160;28;20020;-75
2021/12/10 11:56:43;;;;;;;19.98;8.30;;;6.50;99.90;;;;;;5096066;28;20404;-71
2021/12/10 11:59:16;;;;;;;20.58;7.82;;;6.50;99.90;;;;;;5095953;28;20052;-76
2021/12/10 12:01:53;;;;;;;21.73;9.38;;;6.60;99.90;;;;;;5095436;28;20035;-72
2021/12/10 12:04:31;;;;;;;19.27;7.97;;;6.60;99.90;;;;;;5095773;28;20044;-72
2021/12/10 12:07:22;;;;;;;17.83;6.97;;;6.70;99.90;;;;;;5095410;28;20016;-75
2021/12/10 12:09:52;;;;;;;19.02;7.03;;;6.70;99.90;;;;;;5095545;28;20035;-73
2021/12/10 12:12:23;;;;;;;19.15;7.43;;;6.70;99.90;;;;;;5095322;28;20024;-73
2021/12/10 12:14:54;;;;;;;15.40;6.35;;;6.80;99.90;;;;;;5095412;28;20105;-74
2021/12/10 12:17:40;;;;;;;15.32;7.00;;;6.70;99.90;;;;;;5095037;28;20483;-73
2021/12/10 12:20:26;;;;;;;16.38;6.10;;;6.70;99.90;;;;;;5094746;28;20051;-74
2021/12/10 12:26:18;;;;;;;14.88;6.50;;;6.70;99.90;;;;;;5115409;28;20124;-72
2021/12/10 12:28:56;;;;;;;15.25;6.18;;;6.70;99.90;;;;;;5097095;28;20143;-73
2021/12/10 12:31:28;;;;;;;16.83;6.85;;;6.70;99.90;;;;;;5094614;28;20016;-76
2021/12/10 12:34:06;;;;;;;;;;;6.60;99.90;;;;;;5095175;28;20476;-75
2021/12/10 12:36:34;;;;;;;17.30;6.25;;;6.60;99.90;;;;;;5094331;28;19905;-75
2021/12/10 12:39:03;;;;;;;19.75;6.53;;;6.50;99.90;;;;;;5094460;28;20050;-75
2021/12/10 12:41:34;;;;;;;17.08;6.07;;;6.50;99.90;;;;;;5094209;28;20130;-72
2021/12/10 12:44:13;;;;;;;14.98;5.88;;;6.40;99.90;;;;;;5093295;28;20477;-74
2021/12/10 12:47:04;;;;;;;15.95;6.68;;;6.40;99.90;;;;;;5092687;28;20717;-74
2021/12/10 12:49:57;;;;;;;15.20;7.00;;;6.40;99.90;;;;;;5094441;28;20061;-75
2021/12/10 12:52:23;;;;;;;15.68;6.90;;;6.40;99.90;;;;;;5086087;28;20115;-71
2021/12/10 12:55:19;;;;;;;15.88;6.13;;;6.40;99.90;;;;;;5094279;28;20056;-73
2021/12/10 12:57:59;;;;;;;14.27;5.88;;;6.40;99.90;;;;;;5094219;28;20110;-75
2021/12/10 13:00:46;;;;;;;16.75;6.43;;;6.30;99.90;;;;;;5094152;28;20040;-75
2021/12/10 13:03:25;;;;;;;17.98;6.30;;;6.30;99.90;;;;;;5094192;28;20021;-74
2021/12/10 13:06:09;;;;;;;18.85;7.45;;;6.30;99.90;;;;;;5094007;28;20024;-73
2021/12/10 13:08:37;;;;;;;20.95;6.28;;;6.40;99.90;;;;;;5093120;28;20446;-75
2021/12/10 13:11:16;;;;;;;19.30;7.30;;;6.40;99.90;;;;;;5094117;28;20464;-74
2021/12/10 13:14:13;;;;;;;43.67;8.55;;;6.40;99.90;;;;;;5093919;28;20024;-73